Time;durP1;ratioP1;P1;durP2;ratioP2;P2;SDS_P1;SDS_P2;PMS_P1;PMS_P2;Temp;Humidity;BMP_temperature;BMP_pressure;BME280_temperature;BME280_humidity;BME280_pressure;Samples;Min_cycle;Max_cycle;Signal;HPM_P1;HPM_P2
2022/03/05 00:01:24;;;;;;;14.02;4.47;;;2.90;99.90;;;;;;4996671;28;20109;-72
2022/03/05 00:03:49;;;;;;;9.88;4.40;;;2.80;99.90;;;;;;4994152;28;20049;-73
2022/03/05 00:06:15;;;;;;;10.43;4.10;;;2.80;99.90;;;;;;4993735;28;20033;-71
2022/03/05 00:08:41;;;;;;;16.90;4.40;;;2.70;99.90;;;;;;4993898;28;20105;-71
2022/03/05 00:11:07;;;;;;;11.20;4.05;;;2.60;99.90;;;;;;4994943;28;20030;-72
2022/03/05 00:13:32;;;;;;;8.65;4.22;;;2.60;99.90;;;;;;4994206;28;20014;-72
2022/03/05 00:15:58;;;;;;;11.38;4.38;;;2.50;99.90;;;;;;4993621;28;20018;-71
2022/03/05 00:18:24;;;;;;;11.13;4.68;;;2.60;99.90;;;;;;4993902;28;20026;-73
2022/03/05 00:20:51;;;;;;;15.02;4.93;;;2.60;99.90;;;;;;4994716;28;20030;-71
2022/03/05 00:23:17;;;;;;;14.55;4.60;;;2.50;99.90;;;;;;4993840;28;20109;-72
2022/03/05 00:25:43;;;;;;;14.05;4.80;;;2.50;99.90;;;;;;4993444;28;20114;-73
2022/03/05 00:28:09;;;;;;;11.05;4.60;;;2.40;99.90;;;;;;4993774;28;20022;-73
2022/03/05 00:30:34;;;;;;;11.80;4.28;;;2.40;99.90;;;;;;4994403;28;20029;-72
2022/03/05 00:33:00;;;;;;;13.73;5.00;;;2.40;99.90;;;;;;4995264;28;20046;-71
2022/03/05 00:35:26;;;;;;;13.60;5.22;;;2.40;99.90;;;;;;4995501;28;20029;-71
2022/03/05 00:37:51;;;;;;;10.73;4.45;;;2.40;99.90;;;;;;4996886;28;20438;-72
2022/03/05 00:40:17;;;;;;;24.98;4.97;;;2.40;99.90;;;;;;4996802;28;20403;-72
2022/03/05 00:42:42;;;;;;;11.00;4.25;;;2.30;99.90;;;;;;4996314;28;20145;-73
2022/03/05 00:45:08;;;;;;;17.02;4.57;;;2.30;99.90;;;;;;4996685;28;20041;-72
2022/03/05 00:47:35;;;;;;;11.07;4.10;;;2.30;99.90;;;;;;4998517;28;20092;-71
2022/03/05 00:50:03;;;;;;;11.55;4.22;;;2.30;99.90;;;;;;4995653;28;20041;-71
2022/03/05 00:52:28;;;;;;;13.05;4.40;;;2.20;99.90;;;;;;4996475;28;20027;-72
2022/03/05 00:54:54;;;;;;;20.00;5.75;;;2.20;99.90;;;;;;4996051;28;20030;-71
2022/03/05 00:57:19;;;;;;;11.82;4.30;;;2.20;99.90;;;;;;4996510;28;20050;-72
2022/03/05 00:59:45;;;;;;;12.10;4.30;;;2.20;99.90;;;;;;4996019;28;20026;-73
2022/03/05 01:02:10;;;;;;;13.18;4.80;;;2.10;99.90;;;;;;4996453;28;20026;-73
2022/03/05 01:04:36;;;;;;;13.48;4.65;;;2.00;99.90;;;;;;4996156;28;20027;-72
2022/03/05 01:07:02;;;;;;;19.90;5.00;;;2.00;99.90;;;;;;4995893;28;20440;-72
2022/03/05 01:09:27;;;;;;;11.55;5.03;;;1.90;99.90;;;;;;4997176;28;20045;-73
2022/03/05 01:11:53;;;;;;;18.85;4.75;;;1.90;99.90;;;;;;5004424;28;20555;-71
2022/03/05 01:14:18;;;;;;;21.42;5.00;;;2.00;99.90;;;;;;5002174;28;20022;-71
2022/03/05 01:16:44;;;;;;;14.10;4.82;;;1.90;99.90;;;;;;5001264;28;20090;-71
2022/03/05 01:19:09;;;;;;;18.08;4.80;;;1.90;99.90;;;;;;5000986;28;20109;-72
2022/03/05 01:21:36;;;;;;;17.48;5.38;;;1.90;99.90;;;;;;4994962;28;20030;-71
2022/03/05 01:24:02;;;;;;;13.32;5.35;;;1.80;99.90;;;;;;4993884;28;20057;-71
2022/03/05 01:26:29;;;;;;;18.77;5.32;;;1.80;99.90;;;;;;4993667;28;20374;-71
2022/03/05 01:28:55;;;;;;;13.75;5.13;;;1.80;99.90;;;;;;4993733;28;20425;-72
2022/03/05 01:31:20;;;;;;;13.63;4.90;;;1.70;99.90;;;;;;4994500;28;20061;-73
2022/03/05 01:33:46;;;;;;;16.13;4.38;;;1.70;99.90;;;;;;4994427;28;20080;-72
2022/03/05 01:36:11;;;;;;;13.77;4.57;;;1.70;99.90;;;;;;4993286;28;20033;-71
2022/03/05 01:38:37;;;;;;;16.45;4.60;;;1.70;99.90;;;;;;4995150;28;20034;-72
2022/03/05 01:41:03;;;;;;;12.20;4.20;;;1.70;99.90;;;;;;5002278;28;20030;-72
2022/03/05 01:43:28;;;;;;;15.45;4.72;;;1.70;99.90;;;;;;4995835;28;20033;-72
2022/03/05 01:45:54;;;;;;;13.07;4.53;;;1.80;99.90;;;;;;4995665;28;20052;-73
2022/03/05 01:48:20;;;;;;;12.25;4.85;;;1.70;99.90;;;;;;4995321;28;20497;-72
2022/03/05 01:50:47;;;;;;;11.98;4.50;;;1.70;99.90;;;;;;4995545;28;20018;-72
2022/03/05 01:53:12;;;;;;;15.90;5.45;;;1.60;99.90;;;;;;4995770;28;20038;-74
2022/03/05 01:55:38;;;;;;;15.10;4.82;;;1.60;99.90;;;;;;4993850;28;20026;-72
2022/03/05 01:58:04;;;;;;;12.77;4.97;;;1.50;99.90;;;;;;4993966;28;20053;-71
2022/03/05 02:00:29;;;;;;;9.07;4.60;;;1.60;99.90;;;;;;4994172;28;20523;-72
2022/03/05 02:02:55;;;;;;;17.08;4.75;;;1.60;99.90;;;;;;4993308;28;20053;-72
2022/03/05 02:05:21;;;;;;;11.32;4.35;;;1.60;99.90;;;;;;4992816;28;20026;-73
2022/03/05 02:07:46;;;;;;;15.68;4.32;;;1.60;99.90;;;;;;4992523;28;20055;-73
2022/03/05 02:10:12;;;;;;;13.38;4.65;;;1.50;99.90;;;;;;4992757;28;20035;-72
2022/03/05 02:12:38;;;;;;;16.38;4.78;;;1.60;99.90;;;;;;4992873;28;20097;-71
2022/03/05 02:15:06;;;;;;;14.32;4.35;;;1.50;99.90;;;;;;4994418;28;20026;-71
2022/03/05 02:17:32;;;;;;;15.38;4.07;;;1.50;99.90;;;;;;4999648;28;20026;-71
2022/03/05 02:19:58;;;;;;;16.48;5.65;;;1.60;99.90;;;;;;4998440;28;20062;-72
2022/03/05 02:22:25;;;;;;;15.63;4.72;;;1.50;99.90;;;;;;4992896;28;20060;-73
2022/03/05 02:24:59;;;;;;;8.98;4.35;;;1.50;99.90;;;;;;4993025;28;20026;-72
2022/03/05 02:27:26;;;;;;;;;;;1.50;99.90;;;;;;4993031;28;20030;-72
2022/03/05 02:29:53;;;;;;;14.98;4.55;;;1.40;99.90;;;;;;4992988;28;19906;-72
2022/03/05 02:32:19;;;;;;;16.42;4.53;;;1.40;99.90;;;;;;4992949;28;20049;-72
2022/03/05 02:34:45;;;;;;;12.50;4.40;;;1.40;99.90;;;;;;4992818;28;20027;-72
2022/03/05 02:37:12;;;;;;;11.68;3.97;;;1.40;99.90;;;;;;4992788;28;20037;-72
2022/03/05 02:39:37;;;;;;;13.80;3.90;;;1.40;99.90;;;;;;4993070;28;20113;-73
2022/03/05 02:42:03;;;;;;;14.82;4.45;;;1.40;99.90;;;;;;4992862;28;20076;-72
2022/03/05 02:44:29;;;;;;;16.23;4.18;;;1.30;99.90;;;;;;4992778;28;20033;-72
2022/03/05 02:46:56;;;;;;;25.00;4.55;;;1.30;99.90;;;;;;4992164;28;20026;-72
2022/03/05 02:49:21;;;;;;;14.65;3.88;;;1.30;99.90;;;;;;4997054;28;20022;-72
2022/03/05 02:51:47;;;;;;;14.68;4.57;;;1.30;99.90;;;;;;4996726;28;20037;-72
2022/03/05 02:54:12;;;;;;;12.05;3.75;;;1.30;99.90;;;;;;4997011;28;20027;-72
2022/03/05 02:56:38;;;;;;;11.70;3.92;;;1.30;99.90;;;;;;4996375;28;20037;-72
2022/03/05 02:59:04;;;;;;;13.18;3.92;;;1.20;99.90;;;;;;4996321;28;20027;-72
2022/03/05 03:01:29;;;;;;;13.50;4.60;;;1.20;99.90;;;;;;4996891;28;20415;-71
2022/03/05 03:03:55;;;;;;;14.73;4.47;;;1.20;99.90;;;;;;4998098;28;20487;-73
2022/03/05 03:06:20;;;;;;;13.45;4.63;;;1.20;99.90;;;;;;4995926;28;20038;-73
2022/03/05 03:08:46;;;;;;;12.63;4.13;;;1.30;99.90;;;;;;4996020;28;20022;-72
2022/03/05 03:11:11;;;;;;;10.15;3.78;;;1.20;99.90;;;;;;4996100;28;20357;-72
2022/03/05 03:13:38;;;;;;;10.23;4.18;;;1.10;99.90;;;;;;4996065;28;20037;-72
2022/03/05 03:16:04;;;;;;;16.13;4.30;;;1.00;99.90;;;;;;4996344;28;20149;-72
2022/03/05 03:18:30;;;;;;;10.25;3.78;;;1.10;99.90;;;;;;4998055;28;20650;-72
2022/03/05 03:20:55;;;;;;;12.48;4.15;;;1.10;99.90;;;;;;4998194;28;20037;-72
2022/03/05 03:23:21;;;;;;;10.90;3.88;;;1.00;99.90;;;;;;5000872;28;20034;-72
2022/03/05 03:25:46;;;;;;;10.25;3.65;;;1.00;99.90;;;;;;5004340;28;20023;-73
2022/03/05 03:28:12;;;;;;;12.40;3.78;;;1.00;99.90;;;;;;5005473;28;20058;-72
2022/03/05 03:30:38;;;;;;;11.13;4.10;;;1.00;99.90;;;;;;5005269;28;20388;-71
2022/03/05 03:33:04;;;;;;;17.05;3.83;;;1.00;99.90;;;;;;5005435;28;20070;-71
2022/03/05 03:35:29;;;;;;;13.15;3.65;;;1.00;99.90;;;;;;5002891;28;20495;-73
2022/03/05 03:37:55;;;;;;;12.88;3.42;;;1.00;99.90;;;;;;5004742;28;20027;-72
2022/03/05 03:40:20;;;;;;;11.43;3.42;;;0.90;99.90;;;;;;5003365;28;20030;-73
2022/03/05 03:42:48;;;;;;;18.38;3.83;;;1.00;99.90;;;;;;5001011;28;20500;-72
2022/03/05 03:45:15;;;;;;;14.68;3.40;;;0.90;99.90;;;;;;4995164;28;20034;-72
2022/03/05 03:47:42;;;;;;;16.77;3.78;;;0.90;99.90;;;;;;4995481;28;20029;-72
2022/03/05 03:50:10;;;;;;;12.65;3.75;;;0.90;99.90;;;;;;4996305;28;20022;-72
2022/03/05 03:52:35;;;;;;;13.57;3.83;;;0.90;99.90;;;;;;4998044;28;20018;-72
2022/03/05 03:55:03;;;;;;;17.90;4.03;;;0.80;99.90;;;;;;4997394;28;20054;-72
2022/03/05 03:57:28;;;;;;;9.88;3.45;;;0.80;99.90;;;;;;4997733;28;20443;-72
2022/03/05 03:59:54;;;;;;;16.73;3.97;;;0.80;99.90;;;;;;4996546;28;20084;-74
2022/03/05 04:02:21;;;;;;;10.65;3.45;;;0.80;99.90;;;;;;4995799;28;20084;-74
2022/03/05 04:04:48;;;;;;;13.05;3.75;;;0.80;99.90;;;;;;4996127;28;20030;-73
2022/03/05 04:09:58;;;;;;;13.43;3.97;;;0.80;99.90;;;;;;4996559;28;20036;-73
2022/03/05 04:12:24;;;;;;;13.20;3.88;;;0.70;99.90;;;;;;4996582;28;20054;-73
2022/03/05 04:14:50;;;;;;;13.30;3.38;;;0.70;99.90;;;;;;4996778;28;20026;-73
2022/03/05 04:17:15;;;;;;;19.55;4.13;;;0.70;99.90;;;;;;4996187;28;20440;-72
2022/03/05 04:19:42;;;;;;;11.15;3.22;;;0.80;99.90;;;;;;4996135;28;20099;-72
2022/03/05 04:22:07;;;;;;;11.43;3.28;;;0.70;99.90;;;;;;4994139;28;20383;-72
2022/03/05 04:24:33;;;;;;;12.70;3.80;;;0.70;99.90;;;;;;4994988;28;20022;-73
2022/03/05 04:26:58;;;;;;;16.15;3.80;;;0.60;99.90;;;;;;4994668;28;20488;-72
2022/03/05 04:29:24;;;;;;;11.50;4.07;;;0.60;99.90;;;;;;4996438;28;20032;-76
2022/03/05 04:31:49;;;;;;;19.38;3.72;;;0.60;99.90;;;;;;4996801;28;20030;-72
2022/03/05 04:34:15;;;;;;;15.85;4.22;;;0.60;99.90;;;;;;4996482;28;20019;-72
2022/03/05 04:36:41;;;;;;;16.10;3.55;;;0.60;99.90;;;;;;4997320;28;20034;-72
2022/03/05 04:39:07;;;;;;;16.17;3.95;;;0.50;99.90;;;;;;4998891;28;20022;-73
2022/03/05 04:41:32;;;;;;;15.45;3.60;;;0.50;99.90;;;;;;4996733;28;20061;-74
2022/03/05 04:43:58;;;;;;;11.25;4.20;;;0.50;99.90;;;;;;4997484;28;20097;-72
2022/03/05 04:46:23;;;;;;;14.75;3.85;;;0.50;99.90;;;;;;4996366;28;20034;-72
2022/03/05 04:48:49;;;;;;;15.63;3.58;;;0.50;99.90;;;;;;4996787;28;20081;-74
2022/03/05 04:51:14;;;;;;;11.60;3.65;;;0.50;99.90;;;;;;4998426;28;20034;-73
2022/03/05 04:53:40;;;;;;;15.85;3.90;;;0.50;99.90;;;;;;5004200;28;20022;-72
2022/03/05 04:56:05;;;;;;;15.40;4.40;;;0.50;99.90;;;;;;4999521;28;20026;-73
2022/03/05 04:58:31;;;;;;;12.50;3.75;;;0.40;99.90;;;;;;4996421;28;20026;-73
2022/03/05 05:00:56;;;;;;;9.77;3.50;;;0.40;99.90;;;;;;4995553;28;20030;-73
2022/03/05 05:03:22;;;;;;;19.65;4.18;;;0.40;99.90;;;;;;5003718;28;20049;-73
2022/03/05 05:05:48;;;;;;;15.40;4.20;;;0.40;99.90;;;;;;5003733;28;20110;-73
2022/03/05 05:08:13;;;;;;;14.60;4.18;;;0.40;99.90;;;;;;4998026;28;20014;-71
2022/03/05 05:10:39;;;;;;;15.10;3.65;;;0.40;99.90;;;;;;4996004;28;20019;-72
2022/03/05 05:13:05;;;;;;;13.77;3.85;;;0.40;99.90;;;;;;4995832;28;20081;-72
2022/03/05 05:15:30;;;;;;;13.25;3.38;;;0.40;99.90;;;;;;4997409;28;20029;-74
2022/03/05 05:17:59;;;;;;;11.30;3.55;;;0.40;99.90;;;;;;4995945;28;20084;-72
2022/03/05 05:20:24;;;;;;;14.60;3.65;;;0.40;99.90;;;;;;4997012;28;20022;-70
2022/03/05 05:22:50;;;;;;;8.77;3.65;;;0.40;99.90;;;;;;4999297;28;20034;-72
2022/03/05 05:25:15;;;;;;;9.20;3.58;;;0.40;99.90;;;;;;4998277;28;20034;-73
2022/03/05 05:27:41;;;;;;;11.07;3.95;;;0.40;99.90;;;;;;4997120;28;20030;-72
2022/03/05 05:30:07;;;;;;;12.50;3.45;;;0.40;99.90;;;;;;4999264;28;20551;-71
2022/03/05 05:32:33;;;;;;;14.05;4.55;;;0.40;99.90;;;;;;4998916;28;20030;-71
2022/03/05 05:34:59;;;;;;;14.23;3.42;;;0.40;99.90;;;;;;4996260;28;20396;-71
2022/03/05 05:37:24;;;;;;;18.30;4.18;;;0.40;99.90;;;;;;4994949;28;20034;-72
2022/03/05 05:39:50;;;;;;;12.23;3.75;;;0.40;99.90;;;;;;4995551;28;20030;-71
2022/03/05 05:42:15;;;;;;;12.80;3.58;;;0.40;99.90;;;;;;4997005;28;20035;-71
2022/03/05 05:44:41;;;;;;;16.50;4.38;;;0.30;99.90;;;;;;5005063;28;20026;-71
2022/03/05 05:47:07;;;;;;;12.73;4.05;;;0.30;99.90;;;;;;4996489;28;20030;-71
2022/03/05 05:49:33;;;;;;;15.15;3.75;;;0.30;99.90;;;;;;4996950;28;20109;-74
2022/03/05 05:51:59;;;;;;;13.52;4.05;;;0.40;99.90;;;;;;4995701;28;20102;-72
2022/03/05 05:54:25;;;;;;;18.65;4.07;;;0.30;99.90;;;;;;4997804;28;20054;-72
2022/03/05 05:56:50;;;;;;;22.88;7.30;;;0.30;99.90;;;;;;4996381;28;20399;-72
2022/03/05 05:59:16;;;;;;;18.83;6.07;;;0.30;99.90;;;;;;4996407;28;20048;-72
2022/03/05 06:01:42;;;;;;;24.65;4.82;;;0.30;99.90;;;;;;4997657;28;20375;-72
2022/03/05 06:04:07;;;;;;;15.95;4.70;;;0.20;99.90;;;;;;4999629;28;20026;-72
2022/03/05 06:06:33;;;;;;;13.60;4.88;;;0.20;99.90;;;;;;4995139;28;20033;-73
2022/03/05 06:11:29;;;;;;;20.67;5.07;;;0.20;99.90;;;;;;4980638;28;20404;-80
2022/03/05 06:13:56;;;;;;;15.32;4.85;;;0.20;99.90;;;;;;4991913;28;20019;-80
2022/03/05 06:16:21;;;;;;;16.83;4.75;;;0.30;99.90;;;;;;5000127;28;20031;-80
2022/03/05 06:18:47;;;;;;;16.52;4.30;;;0.30;99.90;;;;;;5002928;28;20037;-78
2022/03/05 06:21:13;;;;;;;13.27;4.90;;;0.40;99.90;;;;;;4985850;28;20034;-77
2022/03/05 06:23:39;;;;;;;18.35;4.82;;;0.40;99.90;;;;;;4984946;28;20054;-80
2022/03/05 06:26:05;;;;;;;20.90;5.03;;;0.40;99.90;;;;;;4988570;28;20023;-78
2022/03/05 06:28:30;;;;;;;14.18;4.72;;;0.40;99.90;;;;;;4986117;28;20027;-78
2022/03/05 06:30:56;;;;;;;13.20;4.90;;;0.40;99.90;;;;;;4983467;28;20027;-77
2022/03/05 06:33:21;;;;;;;15.80;4.72;;;0.50;99.90;;;;;;4980496;28;20031;-77
2022/03/05 06:35:47;;;;;;;18.83;5.18;;;0.50;99.90;;;;;;4976951;28;20090;-77
2022/03/05 06:38:13;;;;;;;22.17;7.18;;;0.40;99.90;;;;;;4978629;28;20042;-77
2022/03/05 06:40:38;;;;;;;17.65;5.35;;;0.40;99.90;;;;;;4981110;28;20033;-80
2022/03/05 06:43:04;;;;;;;24.13;5.72;;;0.50;99.90;;;;;;4988693;28;20062;-78
2022/03/05 06:45:30;;;;;;;17.45;5.50;;;0.50;99.90;;;;;;4981575;28;20035;-77
2022/03/05 06:47:55;;;;;;;13.57;4.93;;;0.60;99.90;;;;;;4979176;28;20027;-78
2022/03/05 06:50:21;;;;;;;14.45;5.15;;;0.60;99.90;;;;;;4976834;28;20027;-77
2022/03/05 06:52:47;;;;;;;13.48;4.70;;;0.60;99.90;;;;;;4976422;28;20027;-78
2022/03/05 06:55:13;;;;;;;16.85;5.25;;;0.60;99.90;;;;;;4977721;28;20066;-78
2022/03/05 06:57:40;;;;;;;22.58;5.60;;;0.70;99.90;;;;;;4980902;28;20062;-77
2022/03/05 07:00:06;;;;;;;22.20;5.97;;;0.80;99.90;;;;;;4980088;28;20023;-79
2022/03/05 07:02:32;;;;;;;13.82;5.50;;;0.70;99.90;;;;;;4985925;28;20057;-78
2022/03/05 07:04:57;;;;;;;18.67;5.82;;;0.80;99.90;;;;;;4983325;28;20023;-78
2022/03/05 07:07:23;;;;;;;22.00;6.15;;;0.80;99.90;;;;;;4979485;28;20039;-78
2022/03/05 07:09:49;;;;;;;19.90;6.15;;;0.80;99.90;;;;;;4979872;28;20057;-77
2022/03/05 07:12:14;;;;;;;18.52;5.68;;;0.90;99.90;;;;;;4980111;28;20034;-77
2022/03/05 07:14:40;;;;;;;17.83;5.63;;;1.00;99.90;;;;;;4980485;28;20475;-78
2022/03/05 07:17:05;;;;;;;21.27;6.70;;;1.10;99.90;;;;;;4975085;28;20042;-76
2022/03/05 07:19:31;;;;;;;15.80;6.53;;;1.10;99.90;;;;;;4974495;28;20117;-78
2022/03/05 07:21:58;;;;;;;12.90;5.47;;;1.00;99.90;;;;;;4974943;28;20054;-77
2022/03/05 07:24:24;;;;;;;21.70;5.53;;;1.20;99.90;;;;;;4976744;28;20138;-77
2022/03/05 07:26:49;;;;;;;15.88;5.25;;;1.30;99.90;;;;;;4973502;28;20022;-77
2022/03/05 07:29:15;;;;;;;16.73;5.50;;;1.30;99.90;;;;;;4980076;28;20503;-77
2022/03/05 07:31:40;;;;;;;29.60;5.70;;;1.50;99.90;;;;;;4976088;28;20550;-77
2022/03/05 07:34:06;;;;;;;21.35;6.03;;;1.60;99.90;;;;;;4974098;28;20484;-77
2022/03/05 07:36:31;;;;;;;29.33;5.70;;;1.60;99.90;;;;;;4976957;28;20511;-79
2022/03/05 07:38:57;;;;;;;20.27;5.97;;;1.70;99.90;;;;;;4980287;28;20042;-79
2022/03/05 07:41:23;;;;;;;18.95;5.93;;;1.70;99.90;;;;;;4984271;28;20027;-78
2022/03/05 07:43:48;;;;;;;19.92;5.65;;;1.90;99.90;;;;;;4984227;28;20061;-77
2022/03/05 07:46:14;;;;;;;16.05;5.60;;;1.90;99.90;;;;;;4993297;28;20049;-76
2022/03/05 07:48:40;;;;;;;21.20;6.47;;;1.90;99.90;;;;;;4998762;28;20041;-76
2022/03/05 07:51:05;;;;;;;17.70;5.20;;;2.00;99.90;;;;;;4997476;28;20092;-77
2022/03/05 07:53:34;;;;;;;16.40;5.43;;;2.00;99.90;;;;;;4999286;28;20046;-76
2022/03/05 07:56:00;;;;;;;18.92;5.88;;;2.10;99.90;;;;;;4979285;28;20064;-76
2022/03/05 07:58:25;;;;;;;18.65;5.70;;;2.00;99.90;;;;;;4980734;28;20047;-76
2022/03/05 08:00:51;;;;;;;18.65;5.65;;;2.20;99.90;;;;;;4968578;28;20031;-75
2022/03/05 08:03:17;;;;;;;18.13;6.15;;;2.20;99.90;;;;;;4959664;28;20028;-75
2022/03/05 08:05:43;;;;;;;16.13;5.78;;;2.30;99.90;;;;;;4959374;29;20039;-76
2022/03/05 08:08:09;;;;;;;22.52;5.63;;;2.50;99.90;;;;;;4957898;28;20114;-77
2022/03/05 08:10:35;;;;;;;15.80;6.07;;;2.60;99.90;;;;;;4959761;28;20078;-76
2022/03/05 08:13:00;;;;;;;16.40;6.30;;;2.80;99.90;;;;;;4956775;28;20046;-75
2022/03/05 08:15:26;;;;;;;16.85;5.78;;;2.90;99.90;;;;;;4961754;28;20388;-77
2022/03/05 08:17:53;;;;;;;25.85;6.15;;;3.00;99.90;;;;;;4961954;28;20039;-75
2022/03/05 08:20:19;;;;;;;13.52;5.78;;;3.10;99.90;;;;;;4956859;28;20029;-75
2022/03/05 08:22:45;;;;;;;18.55;5.75;;;3.10;99.90;;;;;;4957924;28;20037;-76
2022/03/05 08:25:10;;;;;;;19.77;5.97;;;3.20;99.90;;;;;;4961935;28;20122;-76
2022/03/05 08:27:36;;;;;;;21.83;6.40;;;3.30;99.90;;;;;;4956253;29;20078;-77
2022/03/05 08:30:03;;;;;;;14.15;5.47;;;3.40;99.90;;;;;;4971532;28;20039;-78
2022/03/05 08:32:29;;;;;;;19.60;5.60;;;3.60;99.90;;;;;;4981381;28;20083;-76
2022/03/05 08:34:54;;;;;;;21.15;6.20;;;4.10;99.90;;;;;;4981065;28;20023;-77
2022/03/05 08:37:20;;;;;;;14.60;5.47;;;4.70;99.90;;;;;;4980633;28;20031;-80
2022/03/05 08:39:45;;;;;;;19.90;6.28;;;5.40;99.90;;;;;;4981063;28;20040;-79
2022/03/05 08:42:10;;;;;;;16.35;4.82;;;6.30;99.90;;;;;;4980593;28;20027;-78
2022/03/05 08:44:36;;;;;;;18.08;5.25;;;;;;;;;;4979917;28;20026;-78
2022/03/05 08:47:03;;;;;;;17.52;5.30;;;;;;;;;;4979774;28;20023;-74
2022/03/05 08:49:29;;;;;;;13.75;5.72;;;;;;;;;;4978184;28;20456;-74
2022/03/05 08:51:54;;;;;;;15.68;5.32;;;7.10;99.90;;;;;;4976197;29;20047;-77
2022/03/05 08:54:20;;;;;;;15.07;5.65;;;10.30;99.90;;;;;;4977588;28;20027;-78
2022/03/05 08:56:47;;;;;;;16.90;8.38;;;10.80;99.90;;;;;;4961091;28;20047;-78
2022/03/05 08:59:13;;;;;;;15.85;5.57;;;11.10;99.90;;;;;;4963288;28;20082;-74
2022/03/05 09:01:39;;;;;;;12.52;5.00;;;11.60;99.90;;;;;;4981284;28;20027;-81
2022/03/05 09:04:05;;;;;;;17.38;5.70;;;12.00;99.90;;;;;;4975004;28;20027;-74
2022/03/05 09:06:30;;;;;;;16.02;5.78;;;12.40;99.90;;;;;;4979789;28;20023;-73
2022/03/05 09:08:57;;;;;;;16.52;5.90;;;12.90;99.90;;;;;;4980847;28;20050;-74
2022/03/05 09:11:22;;;;;;;14.38;6.20;;;13.30;99.90;;;;;;4998146;28;20035;-73
2022/03/05 09:13:48;;;;;;;17.33;6.88;;;13.50;99.80;;;;;;4999347;28;20038;-75
2022/03/05 09:16:15;;;;;;;12.15;5.80;;;13.70;98.00;;;;;;5011659;28;20066;-75
2022/03/05 09:18:40;;;;;;;13.20;6.32;;;14.00;96.90;;;;;;5017775;28;20049;-75
2022/03/05 09:21:07;;;;;;;22.77;7.35;;;14.30;96.00;;;;;;5018459;28;20022;-74
2022/03/05 09:23:33;;;;;;;17.73;6.88;;;14.60;93.40;;;;;;5002290;28;20057;-74
2022/03/05 09:25:58;;;;;;;17.92;7.53;;;14.70;92.70;;;;;;4997524;28;20070;-77
2022/03/05 09:28:24;;;;;;;19.85;7.93;;;15.10;91.20;;;;;;5000302;28;20038;-77
2022/03/05 09:30:50;;;;;;;16.38;7.38;;;15.40;89.60;;;;;;5005155;28;20108;-75
2022/03/05 09:33:15;;;;;;;15.73;7.05;;;15.70;86.10;;;;;;5000209;28;20050;-77
2022/03/05 09:35:41;;;;;;;18.92;7.38;;;16.10;82.80;;;;;;5002265;28;20034;-77
2022/03/05 09:38:07;;;;;;;16.77;8.63;;;16.30;81.00;;;;;;5007471;28;20030;-77
2022/03/05 09:40:33;;;;;;;16.55;8.48;;;16.60;76.30;;;;;;5002548;28;20038;-79
2022/03/05 09:43:01;;;;;;;19.15;7.63;;;16.70;74.00;;;;;;4997111;28;20034;-77
2022/03/05 09:45:27;;;;;;;19.63;7.78;;;16.70;73.10;;;;;;4997545;28;20049;-78
2022/03/05 09:47:54;;;;;;;18.42;7.97;;;16.70;71.90;;;;;;4999615;28;20082;-81
2022/03/05 09:50:20;;;;;;;16.45;7.70;;;16.90;69.60;;;;;;5002664;28;20058;-77
2022/03/05 09:52:45;;;;;;;22.13;8.95;;;17.40;69.30;;;;;;5006018;28;20023;-77
2022/03/05 09:55:11;;;;;;;19.85;7.30;;;17.10;67.60;;;;;;5006436;28;20006;-76
2022/03/05 09:57:37;;;;;;;14.35;7.93;;;17.80;65.50;;;;;;5000773;28;20022;-79
2022/03/05 10:00:04;;;;;;;16.13;7.82;;;18.20;64.90;;;;;;4999489;28;20038;-76
2022/03/05 10:02:30;;;;;;;16.92;8.43;;;18.70;61.70;;;;;;4998529;28;20082;-78
2022/03/05 10:05:16;;;;;;;20.73;8.43;;;18.50;60.60;;;;;;4999380;28;20057;-79
2022/03/05 10:08:02;;;;;;;15.15;7.90;;;19.30;58.30;;;;;;4998929;28;20380;-80
2022/03/05 10:10:28;;;;;;;17.95;7.50;;;19.90;57.00;;;;;;4997481;28;20157;-78
2022/03/05 10:12:54;;;;;;;13.63;7.70;;;20.40;55.10;;;;;;4987721;28;20507;-79
2022/03/05 10:15:21;;;;;;;13.30;7.93;;;20.00;53.70;;;;;;4978848;28;20058;-79
2022/03/05 10:17:55;;;;;;;23.23;7.82;;;20.00;52.60;;;;;;4959853;28;20086;-77
2022/03/05 10:20:30;;;;;;;20.30;8.35;;;19.50;53.30;;;;;;4960033;28;20027;-76
2022/03/05 10:23:05;;;;;;;16.33;7.90;;;19.10;52.40;;;;;;4979333;28;20038;-79
2022/03/05 10:25:36;;;;;;;27.77;8.52;;;17.90;54.90;;;;;;4978666;28;20081;-76
2022/03/05 10:28:22;;;;;;;16.63;7.75;;;17.00;55.20;;;;;;4979819;28;20023;-79
2022/03/05 10:30:49;;;;;;;18.25;8.38;;;16.50;57.90;;;;;;4981407;28;20034;-78
2022/03/05 10:33:30;;;;;;;17.92;8.15;;;16.90;57.00;;;;;;4982709;28;20019;-79
2022/03/05 10:35:57;;;;;;;14.35;8.15;;;;;;;;;;4986940;28;20177;-78
2022/03/05 10:38:25;;;;;;;17.25;8.45;;;;;;;;;;4970166;28;20034;-80
2022/03/05 10:40:57;;;;;;;15.93;7.82;;;;;;;;;;4980785;28;20019;-77
2022/03/05 10:43:24;;;;;;;18.95;7.70;;;;;;;;;;4979380;28;20031;-79
2022/03/05 10:45:51;;;;;;;17.20;7.40;;;;;;;;;;4977224;28;20089;-77
2022/03/05 10:48:25;;;;;;;23.70;7.32;;;16.60;56.30;;;;;;4980379;28;20052;-80
2022/03/05 10:51:12;;;;;;;13.82;7.20;;;18.80;54.90;;;;;;4981137;28;20085;-79
2022/03/05 10:53:44;;;;;;;14.25;7.25;;;18.20;53.20;;;;;;4985639;28;20038;-78
2022/03/05 10:56:34;;;;;;;25.98;12.32;;;17.30;54.80;;;;;;4982630;28;20027;-78
2022/03/05 10:59:05;;;;;;;15.27;7.65;;;17.80;55.00;;;;;;4982641;28;20030;-79
2022/03/05 11:01:32;;;;;;;15.80;7.50;;;18.40;53.40;;;;;;4982304;28;20392;-78
2022/03/05 11:03:59;;;;;;;13.85;7.35;;;18.40;52.30;;;;;;4987450;28;20078;-78
2022/03/05 11:06:25;;;;;;;12.65;6.93;;;17.50;52.80;;;;;;4988341;28;20046;-78
2022/03/05 11:08:51;;;;;;;12.30;7.55;;;;;;;;;;4970674;28;20172;-77
2022/03/05 11:11:19;;;;;;;15.70;6.82;;;16.30;53.70;;;;;;4991405;28;20134;-77
2022/03/05 11:13:45;;;;;;;15.88;7.75;;;14.50;57.40;;;;;;4990890;28;20457;-76
2022/03/05 11:16:12;;;;;;;16.05;7.80;;;13.80;58.80;;;;;;4991782;28;20027;-77
2022/03/05 11:18:41;;;;;;;19.40;7.25;;;13.00;59.30;;;;;;4991541;28;20019;-79
2022/03/05 11:21:08;;;;;;;14.98;7.18;;;12.30;62.20;;;;;;4987708;28;20038;-77
2022/03/05 11:23:35;;;;;;;14.15;6.63;;;;;;;;;;4965886;28;20027;-78
2022/03/05 11:26:02;;;;;;;13.60;6.68;;;;;;;;;;4981342;28;20027;-78
2022/03/05 11:28:35;;;;;;;11.52;6.38;;;;;;;;;;4978477;28;20037;-77
2022/03/05 11:31:06;;;;;;;11.43;5.53;;;;;;;;;;4979053;28;20038;-77
2022/03/05 11:33:38;;;;;;;16.70;7.32;;;11.90;64.30;;;;;;4962026;28;20019;-76
2022/03/05 11:36:05;;;;;;;15.07;6.07;;;10.60;68.10;;;;;;4980125;28;20037;-75
2022/03/05 11:38:34;;;;;;;15.07;6.10;;;10.30;70.00;;;;;;4963513;28;20085;-76
2022/03/05 11:41:20;;;;;;;15.77;6.53;;;10.00;71.70;;;;;;4982722;28;20054;-76
2022/03/05 11:43:49;;;;;;;14.88;6.70;;;9.70;73.20;;;;;;4982503;28;20027;-75
2022/03/05 11:46:26;;;;;;;15.20;6.63;;;9.50;74.60;;;;;;4980731;28;20027;-77
2022/03/05 11:49:04;;;;;;;16.33;6.93;;;9.50;75.20;;;;;;4977909;28;20023;-76
2022/03/05 11:51:29;;;;;;;11.52;6.03;;;10.30;77.60;;;;;;4976800;28;20555;-74
2022/03/05 11:54:11;;;;;;;10.32;5.53;;;11.00;73.40;;;;;;4976619;28;20026;-76
2022/03/05 11:56:36;;;;;;;12.95;6.00;;;11.10;71.40;;;;;;4978901;28;20034;-75
2022/03/05 11:59:30;;;;;;;11.50;5.82;;;10.90;71.70;;;;;;4978672;28;20038;-75
2022/03/05 12:01:55;;;;;;;10.80;5.47;;;10.60;71.70;;;;;;4979643;28;20039;-76
2022/03/05 12:04:23;;;;;;;13.60;6.53;;;10.40;71.90;;;;;;4976440;28;20035;-77
2022/03/05 12:06:51;;;;;;;9.75;5.35;;;10.60;71.80;;;;;;4958526;28;20089;-76
2022/03/05 12:11:55;;;;;;;14.90;5.63;;;12.50;68.60;;;;;;5054433;23;20140;-75
2022/03/05 12:14:20;;;;;;;11.90;5.70;;;13.70;64.90;;;;;;5035872;28;20092;-76
2022/03/05 12:16:48;;;;;;;11.45;5.95;;;14.60;61.40;;;;;;5035764;28;20091;-74
2022/03/05 12:19:15;;;;;;;12.40;4.88;;;15.50;59.70;;;;;;5035233;28;20429;-74
2022/03/05 12:21:41;;;;;;;10.77;5.90;;;17.00;58.10;;;;;;5034914;28;20021;-73
2022/03/05 12:24:09;;;;;;;13.23;5.53;;;18.40;54.30;;;;;;5019748;28;20098;-74
2022/03/05 12:26:51;;;;;;;11.30;5.63;;;19.10;52.20;;;;;;5036282;28;20022;-75
2022/03/05 12:29:16;;;;;;;10.48;5.60;;;19.10;51.20;;;;;;5034560;28;20030;-74
2022/03/05 12:31:43;;;;;;;12.48;5.32;;;19.00;49.20;;;;;;5035736;28;20052;-73
2022/03/05 12:34:11;;;;;;;10.23;4.45;;;19.70;49.90;;;;;;5035565;28;20025;-73
2022/03/05 12:36:46;;;;;;;10.18;5.05;;;20.00;48.60;;;;;;5034388;28;20037;-76
2022/03/05 12:39:14;;;;;;;8.80;4.35;;;20.40;47.20;;;;;;5034343;28;20022;-72
2022/03/05 12:41:42;;;;;;;12.23;6.18;;;20.80;46.30;;;;;;5034557;28;20031;-75
2022/03/05 12:44:11;;;;;;;11.15;4.78;;;20.80;45.50;;;;;;5034397;28;20040;-75
2022/03/05 12:46:37;;;;;;;7.97;4.22;;;20.80;44.90;;;;;;5033847;28;20026;-75
2022/03/05 12:49:06;;;;;;;8.48;4.07;;;20.70;44.70;;;;;;5034437;28;20441;-76
2022/03/05 12:51:32;;;;;;;13.85;4.95;;;20.90;45.10;;;;;;5016109;28;20022;-75
2022/03/05 12:53:59;;;;;;;8.60;4.68;;;21.30;43.80;;;;;;5034117;28;20029;-73